createdAt,value
2022-09-20T00:00:34.889Z,73.54
2022-09-20T00:03:59.717Z,73.43
2022-09-20T00:07:02.538Z,73.83
2022-09-20T00:10:05.928Z,73.51
2022-09-20T00:13:11.107Z,73.57
2022-09-20T00:16:17.630Z,73.57
2022-09-20T00:19:22.290Z,73.51
2022-09-20T00:22:25.198Z,73.53
2022-09-20T00:25:28.093Z,73.47
2022-09-20T00:28:31.839Z,73.56
2022-09-20T00:31:35.780Z,73.56
2022-09-20T00:34:57.216Z,73.48
2022-09-20T00:38:00.089Z,73.73
2022-09-20T00:41:03.020Z,73.80
2022-09-20T00:44:44.556Z,73.68
2022-09-20T00:47:53.544Z,73.71
2022-09-20T00:51:09.036Z,73.72
2022-09-20T00:54:19.971Z,73.76
2022-09-20T00:57:23.830Z,73.90
2022-09-20T01:00:27.594Z,73.59
2022-09-20T01:03:33.240Z,73.61
2022-09-20T01:06:36.499Z,73.55
2022-09-20T01:09:39.351Z,73.74
2022-09-20T01:12:43.743Z,73.44
2022-09-20T01:15:49.283Z,73.74
2022-09-20T01:18:53.087Z,73.71
2022-09-20T01:21:56.291Z,73.61
2022-09-20T01:25:29.799Z,73.81
2022-09-20T01:28:33.525Z,73.80
2022-09-20T01:31:44.968Z,73.76
2022-09-20T01:34:54.091Z,73.64
2022-09-20T01:38:16.159Z,73.57
2022-09-20T01:41:26.834Z,73.61
2022-09-20T01:45:11.079Z,73.75
2022-09-20T01:48:19.127Z,73.72
2022-09-20T01:51:48.215Z,73.70
2022-09-20T01:55:41.176Z,73.60
2022-09-20T01:59:23.763Z,73.77
2022-09-20T02:02:42.523Z,73.77
2022-09-20T02:05:48.048Z,73.88
2022-09-20T02:09:09.600Z,73.70
2022-09-20T02:12:55.429Z,73.97
2022-09-20T02:16:24.841Z,73.88
2022-09-20T02:19:45.995Z,73.76
2022-09-20T02:23:26.493Z,73.69
2022-09-20T02:27:07.873Z,73.80
2022-09-20T02:30:28.482Z,73.75
2022-09-20T02:33:55.840Z,73.68
2022-09-20T02:37:49.776Z,73.55
2022-09-20T02:41:24.839Z,73.85
2022-09-20T02:45:01.350Z,73.90
2022-09-20T02:48:05.133Z,73.73
2022-09-20T02:51:33.484Z,74.07
2022-09-20T02:55:04.498Z,73.61
2022-09-20T02:58:13.074Z,73.78
2022-09-20T03:01:24.967Z,73.62
2022-09-20T03:04:57.421Z,73.74
2022-09-20T03:08:37.225Z,73.84
2022-09-20T03:12:03.292Z,73.85
2022-09-20T03:15:38.888Z,73.80
2022-09-20T03:19:09.171Z,73.79
2022-09-20T03:22:33.316Z,73.80
2022-09-20T03:25:48.215Z,73.81
2022-09-20T03:29:00.126Z,73.65
2022-09-20T03:32:24.425Z,73.89
2022-09-20T03:35:36.239Z,73.95
2022-09-20T03:38:42.068Z,73.73
2022-09-20T03:41:56.898Z,73.68
2022-09-20T03:45:19.688Z,73.77
2022-09-20T03:49:06.944Z,73.76
2022-09-20T03:52:28.540Z,73.66
2022-09-20T03:55:53.548Z,73.77
2022-09-20T03:59:25.192Z,73.83
2022-09-20T04:03:09.158Z,73.85
2022-09-20T04:06:18.983Z,73.61
2022-09-20T04:09:47.476Z,73.74
2022-09-20T04:13:05.344Z,73.84
2022-09-20T04:16:20.242Z,73.69
2022-09-20T04:19:40.096Z,73.89
2022-09-20T04:22:44.855Z,73.77
2022-09-20T04:25:48.435Z,73.82
2022-09-20T04:29:05.728Z,73.91
2022-09-20T04:32:30.081Z,73.66
2022-09-20T04:36:07.634Z,73.69
2022-09-20T04:39:28.711Z,73.54
2022-09-20T04:42:54.724Z,73.59
2022-09-20T04:46:03.543Z,73.65
2022-09-20T04:49:43.922Z,73.74
2022-09-20T04:52:53.669Z,73.65
2022-09-20T04:56:11.812Z,73.63
2022-09-20T05:00:02.707Z,73.65
2022-09-20T05:03:30.345Z,73.74
2022-09-20T05:06:50.905Z,73.70
2022-09-20T05:09:56.266Z,73.58
2022-09-20T05:13:17.016Z,73.56
2022-09-20T05:16:35.548Z,73.60
2022-09-20T05:20:05.642Z,73.56
2022-09-20T05:23:27.031Z,73.47
2022-09-20T05:26:46.650Z,73.63
2022-09-20T05:29:59.545Z,73.47
2022-09-20T05:33:22.298Z,73.60
2022-09-20T05:36:46.000Z,73.43
2022-09-20T05:39:58.182Z,73.22
2022-09-20T05:43:16.338Z,73.20
2022-09-20T05:46:42.364Z,73.34
2022-09-20T05:50:30.012Z,73.22
2022-09-20T05:53:51.477Z,73.35
2022-09-20T05:57:17.093Z,73.30
2022-09-20T06:00:21.538Z,73.26
2022-09-20T06:03:37.533Z,73.35
2022-09-20T06:07:12.557Z,73.42
2022-09-20T06:10:33.576Z,73.36
2022-09-20T06:13:49.865Z,73.32
2022-09-20T06:17:20.267Z,73.18
2022-09-20T06:20:37.399Z,73.28
2022-09-20T06:23:40.337Z,73.41
2022-09-20T06:26:44.706Z,73.47
2022-09-20T06:29:53.369Z,73.41
2022-09-20T06:33:00.250Z,73.29
2022-09-20T06:36:40.506Z,73.43
2022-09-20T06:40:39.587Z,73.54
2022-09-20T06:43:43.105Z,73.50
2022-09-20T06:46:45.955Z,73.46
2022-09-20T06:49:50.198Z,73.53
2022-09-20T06:52:53.721Z,73.38
2022-09-20T06:55:57.938Z,73.50
2022-09-20T06:59:01.212Z,73.44
2022-09-20T07:02:04.333Z,73.57
2022-09-20T07:05:13.368Z,73.60
2022-09-20T07:08:17.418Z,73.48
2022-09-20T07:11:20.535Z,73.37
2022-09-20T07:14:23.767Z,73.46
2022-09-20T07:17:27.025Z,73.39
2022-09-20T07:20:29.921Z,73.70
2022-09-20T07:23:33.200Z,73.51
2022-09-20T07:26:37.249Z,73.55
2022-09-20T07:29:41.213Z,73.49
2022-09-20T07:32:44.257Z,73.78
2022-09-20T07:35:52.710Z,73.66
2022-09-20T07:38:56.199Z,73.54
2022-09-20T07:41:59.371Z,73.90
2022-09-20T07:45:03.838Z,73.47
2022-09-20T07:48:07.281Z,73.58
2022-09-20T07:51:14.266Z,73.40
2022-09-20T07:54:17.967Z,73.53
2022-09-20T07:57:20.982Z,73.53
2022-09-20T08:00:23.953Z,73.46
2022-09-20T08:03:29.044Z,73.51
2022-09-20T08:06:32.737Z,73.56
2022-09-20T08:09:35.885Z,73.83
2022-09-20T08:16:07.621Z,73.65
2022-09-20T08:19:17.087Z,73.56
2022-09-20T08:22:20.323Z,73.52
2022-09-20T08:25:23.336Z,73.49
2022-09-20T08:28:26.311Z,73.40
2022-09-20T08:31:32.462Z,73.45
2022-09-20T08:34:35.459Z,73.43
2022-09-20T08:37:39.167Z,73.45
2022-09-20T08:40:42.163Z,73.18
2022-09-20T08:43:53.850Z,73.22
2022-09-20T08:47:19.366Z,73.15
2022-09-20T08:50:23.108Z,73.13
2022-09-20T08:53:29.039Z,73.12
2022-09-20T08:56:39.084Z,73.28
2022-09-20T08:59:42.383Z,73.23
2022-09-20T09:02:45.956Z,73.01
2022-09-20T09:05:54.938Z,73.16
2022-09-20T09:08:59.656Z,73.14
2022-09-20T09:12:03.890Z,73.15
2022-09-20T09:15:29.517Z,73.22
2022-09-20T09:18:37.695Z,73.09
2022-09-20T09:21:43.446Z,73.07
2022-09-20T09:25:06.902Z,72.98
2022-09-20T09:28:09.751Z,73.03
2022-09-20T09:31:20.056Z,72.83
2022-09-20T09:34:30.678Z,73.02
2022-09-20T09:37:34.584Z,72.82
2022-09-20T09:40:37.898Z,72.87
2022-09-20T09:43:40.837Z,72.67
2022-09-20T09:46:44.291Z,72.66
2022-09-20T09:50:03.793Z,72.64
2022-09-20T09:53:15.261Z,72.78
2022-09-20T09:56:33.048Z,72.70
2022-09-20T09:59:51.048Z,72.41
2022-09-20T10:03:00.730Z,72.38
2022-09-20T10:06:10.813Z,72.14
2022-09-20T10:09:41.569Z,72.01
2022-09-20T10:13:03.530Z,71.47
2022-09-20T10:16:09.544Z,71.40
2022-09-20T10:19:43.504Z,71.52
2022-09-20T10:26:44.073Z,71.77
2022-09-20T10:30:16.740Z,71.94
2022-09-20T10:33:28.134Z,72.00
2022-09-20T10:36:57.234Z,72.22
2022-09-20T10:41:00.769Z,72.31
2022-09-20T10:44:27.539Z,72.27
2022-09-20T10:47:38.187Z,72.52
2022-09-20T10:51:14.860Z,73.10
2022-09-20T10:54:52.094Z,73.45
2022-09-20T10:58:24.635Z,73.61
2022-09-20T11:01:38.418Z,73.43
2022-09-20T11:05:16.505Z,72.98
2022-09-20T11:08:28.577Z,72.56
2022-09-20T11:11:40.487Z,72.32
2022-09-20T11:14:59.896Z,72.01
2022-09-20T11:18:23.342Z,71.29
2022-09-20T11:21:38.489Z,70.49
2022-09-20T11:24:55.635Z,70.27
2022-09-20T11:28:07.891Z,69.70
2022-09-20T11:31:33.346Z,69.12
2022-09-20T11:34:49.793Z,68.57
2022-09-20T11:38:03.147Z,68.08
2022-09-20T11:41:20.152Z,67.77
2022-09-20T11:44:23.667Z,67.61
2022-09-20T11:47:55.560Z,67.27
2022-09-20T11:51:01.670Z,66.41
2022-09-20T11:54:39.078Z,66.01
2022-09-20T11:57:42.180Z,65.72
2022-09-20T12:00:47.964Z,65.32
2022-09-20T12:04:08.693Z,65.00
2022-09-20T12:07:23.021Z,65.07
2022-09-20T12:10:30.587Z,64.75
2022-09-20T12:13:37.607Z,64.25
2022-09-20T12:16:42.165Z,64.30
2022-09-20T12:19:45.159Z,64.22
2022-09-20T12:22:48.131Z,63.76
2022-09-20T12:26:05.425Z,63.36
2022-09-20T12:29:23.604Z,63.15
2022-09-20T12:32:37.113Z,63.07
2022-09-20T12:35:40.117Z,63.13
2022-09-20T12:38:48.320Z,62.97
2022-09-20T12:41:55.717Z,62.97
2022-09-20T12:45:07.397Z,64.21
2022-09-20T12:48:19.597Z,63.14
2022-09-20T12:51:50.685Z,62.67
2022-09-20T12:54:56.352Z,62.52
2022-09-20T12:58:03.684Z,62.55
2022-09-20T13:01:10.590Z,62.41
2022-09-20T13:04:53.101Z,62.13
2022-09-20T13:08:02.955Z,61.64
2022-09-20T13:11:33.754Z,61.43
2022-09-20T13:14:40.715Z,61.07
2022-09-20T13:17:44.812Z,60.81
2022-09-20T13:20:48.476Z,60.79
2022-09-20T13:23:54.234Z,60.91
2022-09-20T13:27:06.437Z,61.12
2022-09-20T13:30:23.782Z,61.30
2022-09-20T13:33:26.733Z,61.66
2022-09-20T13:36:31.751Z,61.68
2022-09-20T13:39:37.886Z,61.69
2022-09-20T13:42:42.047Z,61.68
2022-09-20T13:45:47.454Z,61.67
2022-09-20T13:49:09.224Z,61.79
2022-09-20T13:52:27.168Z,61.78
2022-09-20T13:55:31.976Z,61.82
2022-09-20T13:58:37.265Z,61.59
2022-09-20T14:01:49.625Z,61.49
2022-09-20T14:04:54.754Z,61.43
2022-09-20T14:08:00.757Z,61.40
2022-09-20T14:11:28.889Z,61.31
2022-09-20T14:14:35.140Z,61.41
2022-09-20T14:17:38.384Z,61.57
2022-09-20T14:20:43.669Z,61.96
2022-09-20T14:23:52.435Z,62.00
2022-09-20T14:27:23.652Z,62.13
2022-09-20T14:30:37.872Z,62.53
2022-09-20T14:33:43.966Z,62.95
2022-09-20T14:36:49.611Z,63.20
2022-09-20T14:39:58.579Z,63.45
2022-09-20T14:43:04.533Z,63.67
2022-09-20T14:46:18.441Z,63.79
2022-09-20T14:49:21.251Z,63.72
2022-09-20T14:52:27.391Z,63.78
2022-09-20T14:55:37.187Z,63.97
2022-09-20T14:59:11.554Z,64.03
2022-09-20T15:02:15.816Z,64.20
2022-09-20T15:05:24.017Z,64.13
2022-09-20T15:08:27.291Z,63.94
2022-09-20T15:11:30.567Z,63.72
2022-09-20T15:14:37.440Z,63.68
2022-09-20T15:17:45.356Z,63.60
2022-09-20T15:20:50.038Z,63.63
2022-09-20T15:23:53.367Z,63.75
2022-09-20T15:26:56.230Z,63.80
2022-09-20T15:29:59.150Z,63.99
2022-09-20T15:33:03.245Z,64.12
2022-09-20T15:36:06.734Z,64.20
2022-09-20T15:39:09.606Z,64.34
2022-09-20T15:42:12.596Z,64.47
2022-09-20T15:45:15.841Z,64.71
2022-09-20T15:48:21.559Z,64.80
2022-09-20T15:51:24.945Z,64.94
2022-09-20T15:54:28.034Z,65.01
2022-09-20T15:57:32.140Z,65.16
2022-09-20T16:00:35.828Z,65.28
2022-09-20T16:03:38.929Z,65.57
2022-09-20T16:06:45.044Z,65.63
2022-09-20T16:09:48.785Z,65.80
2022-09-20T16:12:52.283Z,65.87
2022-09-20T16:16:00.258Z,65.98
2022-09-20T16:19:20.867Z,66.15
2022-09-20T16:22:24.330Z,66.36
2022-09-20T16:25:27.633Z,66.47
2022-09-20T16:28:30.959Z,66.66
2022-09-20T16:31:43.372Z,66.83
2022-09-20T16:34:46.654Z,67.12
2022-09-20T16:37:50.048Z,67.27
2022-09-20T16:40:54.735Z,67.31
2022-09-20T16:43:58.530Z,67.47
2022-09-20T16:47:02.631Z,67.67
2022-09-20T16:50:06.449Z,67.77
2022-09-20T16:53:10.020Z,67.83
2022-09-20T16:56:25.142Z,67.87
2022-09-20T16:59:29.255Z,67.83
2022-09-20T17:02:34.198Z,67.73
2022-09-20T17:05:39.866Z,67.82
2022-09-20T17:08:45.656Z,67.84
2022-09-20T17:11:51.366Z,67.90
2022-09-20T17:14:55.701Z,67.98
2022-09-20T17:18:00.792Z,67.97
2022-09-20T17:21:07.255Z,68.03
2022-09-20T17:24:12.475Z,68.19
2022-09-20T17:27:16.927Z,68.12
2022-09-20T17:30:21.404Z,68.24
2022-09-20T17:33:27.384Z,68.26
2022-09-20T17:36:32.864Z,68.30
2022-09-20T17:39:35.887Z,68.25
2022-09-20T17:42:39.171Z,68.33
2022-09-20T17:45:42.112Z,68.26
2022-09-20T17:48:49.020Z,68.33
2022-09-20T17:51:54.664Z,68.67
2022-09-20T17:54:57.688Z,68.79
2022-09-20T17:58:01.140Z,68.91
2022-09-20T18:01:10.929Z,68.80
2022-09-20T18:04:16.147Z,68.89
2022-09-20T18:07:19.195Z,68.90
2022-09-20T18:10:22.380Z,68.91
2022-09-20T18:13:27.790Z,68.87
2022-09-20T18:16:31.744Z,68.97
2022-09-20T18:19:35.854Z,69.07
2022-09-20T18:22:38.840Z,68.89
2022-09-20T18:26:00.282Z,68.96
2022-09-20T18:29:16.934Z,69.01
2022-09-20T18:32:20.149Z,68.92
2022-09-20T18:35:23.653Z,68.85
2022-09-20T18:38:28.136Z,68.94
2022-09-20T18:41:34.028Z,68.83
2022-09-20T18:44:39.487Z,69.03
2022-09-20T18:47:47.249Z,68.97
2022-09-20T18:51:11.925Z,68.96
2022-09-20T18:54:17.491Z,69.04
2022-09-20T18:57:20.860Z,69.05
2022-09-20T19:00:27.618Z,69.22
2022-09-20T19:03:57.423Z,69.28
2022-09-20T19:07:29.579Z,69.52
2022-09-20T19:10:45.568Z,69.83
2022-09-20T19:14:05.100Z,69.39
2022-09-20T19:17:11.163Z,69.45
2022-09-20T19:20:41.423Z,69.34
2022-09-20T19:24:07.287Z,69.23
2022-09-20T19:27:15.634Z,69.26
2022-09-20T19:30:19.971Z,69.30
2022-09-20T19:33:23.118Z,69.45
2022-09-20T19:36:57.924Z,69.45
2022-09-20T19:40:10.951Z,69.38
2022-09-20T19:43:29.962Z,69.45
2022-09-20T19:47:01.963Z,69.55
2022-09-20T19:50:40.654Z,69.23
2022-09-20T19:53:43.929Z,68.97
2022-09-20T19:56:54.586Z,68.75
2022-09-20T19:59:58.384Z,68.71
2022-09-20T20:03:01.696Z,68.62
2022-09-20T20:06:36.414Z,68.59
2022-09-20T20:09:57.070Z,68.64
2022-09-20T20:13:34.537Z,68.64
2022-09-20T20:17:06.711Z,68.61
2022-09-20T20:20:22.468Z,68.83
2022-09-20T20:23:43.786Z,68.98
2022-09-20T20:26:47.073Z,69.04
2022-09-20T20:29:50.419Z,68.92
2022-09-20T20:32:59.631Z,68.80
2022-09-20T20:36:02.950Z,68.81
2022-09-20T20:39:10.860Z,68.96
2022-09-20T20:42:15.076Z,69.15
2022-09-20T20:45:19.726Z,69.01
2022-09-20T20:48:28.203Z,69.04
2022-09-20T20:51:35.220Z,69.13
2022-09-20T20:54:38.194Z,69.17
2022-09-20T20:57:44.217Z,69.40
2022-09-20T21:00:48.910Z,69.30
2022-09-20T21:03:56.230Z,69.49
2022-09-20T21:07:00.198Z,69.18
2022-09-20T21:10:03.455Z,69.16
2022-09-20T21:13:06.479Z,69.41
2022-09-20T21:16:19.969Z,69.24
2022-09-20T21:19:24.103Z,69.34
2022-09-20T21:22:26.989Z,69.47
2022-09-20T21:25:29.884Z,69.66
2022-09-20T21:28:33.037Z,69.83
2022-09-20T21:31:38.197Z,69.82
2022-09-20T21:34:41.322Z,69.93
2022-09-20T21:37:44.987Z,69.97
2022-09-20T21:40:47.840Z,69.95
2022-09-20T21:43:56.174Z,70.15
2022-09-20T21:46:59.013Z,70.29
2022-09-20T21:50:02.062Z,70.16
2022-09-20T21:53:04.927Z,70.26
2022-09-20T21:56:10.398Z,70.33
2022-09-20T21:59:13.447Z,70.37
2022-09-20T22:02:17.121Z,70.51
2022-09-20T22:05:20.463Z,70.41
2022-09-20T22:08:23.309Z,70.51
2022-09-20T22:11:28.387Z,70.57
2022-09-20T22:14:31.209Z,70.81
2022-09-20T22:17:34.002Z,70.77
2022-09-20T22:20:36.796Z,70.81
2022-09-20T22:23:40.495Z,70.93
2022-09-20T22:26:53.660Z,70.96
2022-09-20T22:30:00.341Z,70.83
2022-09-20T22:33:05.687Z,70.80
2022-09-20T22:36:10.446Z,70.97
2022-09-20T22:39:14.499Z,71.13
2022-09-20T22:42:17.399Z,71.20
2022-09-20T22:45:20.359Z,70.94
2022-09-20T22:48:23.150Z,71.06
2022-09-20T22:51:28.466Z,71.19
2022-09-20T22:54:31.356Z,71.12
2022-09-20T22:57:34.480Z,70.94
2022-09-20T23:00:37.363Z,70.94
2022-09-20T23:03:42.713Z,70.94
2022-09-20T23:06:54.830Z,70.92
2022-09-20T23:09:57.857Z,70.82
2022-09-20T23:13:00.764Z,70.64
2022-09-20T23:16:14.753Z,70.81
2022-09-20T23:19:18.076Z,70.78
2022-09-20T23:22:20.935Z,70.74
2022-09-20T23:25:23.722Z,70.63
2022-09-20T23:28:27.307Z,70.71
2022-09-20T23:31:32.388Z,70.71
2022-09-20T23:34:35.302Z,70.73
2022-09-20T23:37:38.571Z,70.47
2022-09-20T23:40:41.381Z,70.31
2022-09-20T23:43:44.751Z,70.56
2022-09-20T23:46:47.603Z,70.42
2022-09-20T23:49:50.395Z,70.44
2022-09-20T23:52:53.357Z,70.43
2022-09-20T23:55:56.269Z,70.62
2022-09-20T23:58:59.202Z,70.53
